Time;durP1;ratioP1;P1;durP2;ratioP2;P2;SDS_P1;SDS_P2;PMS_P1;PMS_P2;Temp;Humidity;BMP_temperature;BMP_pressure;BME280_temperature;BME280_humidity;BME280_pressure;Samples;Min_cycle;Max_cycle;Signal;HPM_P1;HPM_P2
2022/06/15 00:01:15;;;;;;;16.70;11.05;;;10.10;99.90;;;;;;5036221;28;20025;-66
2022/06/15 00:03:41;;;;;;;13.52;9.65;;;10.00;99.90;;;;;;5036479;28;20060;-66
2022/06/15 00:06:08;;;;;;;13.77;8.82;;;10.00;99.90;;;;;;5036427;28;20110;-66
2022/06/15 00:08:35;;;;;;;16.55;9.20;;;10.00;99.90;;;;;;5036078;28;20030;-66
2022/06/15 00:11:27;;;;;;;11.63;8.88;;;10.00;99.90;;;;;;5036114;28;20087;-66
2022/06/15 00:13:54;;;;;;;14.90;9.32;;;10.00;99.90;;;;;;5033976;28;20037;-66
2022/06/15 00:16:21;;;;;;;19.13;11.13;;;10.00;99.90;;;;;;5036566;28;20454;-66
2022/06/15 00:18:46;;;;;;;21.70;11.43;;;10.00;99.90;;;;;;5036010;28;20029;-65
2022/06/15 00:21:14;;;;;;;12.82;10.05;;;10.00;99.90;;;;;;5036189;28;20031;-65
2022/06/15 00:23:39;;;;;;;24.08;10.95;;;10.00;99.90;;;;;;5036054;28;20083;-65
2022/06/15 00:26:05;;;;;;;22.58;10.23;;;10.00;99.90;;;;;;5036093;28;20388;-65
2022/06/15 00:28:32;;;;;;;14.57;9.82;;;10.00;99.90;;;;;;5035736;28;20032;-65
2022/06/15 00:30:58;;;;;;;21.17;11.65;;;10.00;99.90;;;;;;5036054;28;20041;-65
2022/06/15 00:35:56;;;;;;;18.38;11.95;;;10.00;99.90;;;;;;5111007;23;20105;-72
2022/06/15 00:38:22;;;;;;;19.27;11.07;;;10.10;99.90;;;;;;5076129;28;20028;-72
2022/06/15 00:40:47;;;;;;;16.98;10.27;;;10.00;99.90;;;;;;5076141;28;20059;-72
2022/06/15 00:43:13;;;;;;;15.05;9.45;;;10.00;99.90;;;;;;5076480;28;20021;-72
2022/06/15 00:45:39;;;;;;;22.13;11.50;;;10.00;99.90;;;;;;5076141;28;20476;-72
2022/06/15 00:48:06;;;;;;;20.50;11.20;;;9.90;99.90;;;;;;5072643;28;20033;-73
2022/06/15 00:50:32;;;;;;;15.68;9.88;;;9.80;99.90;;;;;;5073946;28;20016;-72
2022/06/15 00:53:07;;;;;;;17.30;9.82;;;9.70;99.90;;;;;;5054616;28;20487;-72
2022/06/15 00:55:34;;;;;;;15.23;8.82;;;9.70;99.90;;;;;;5072192;28;20035;-72
2022/06/15 00:58:08;;;;;;;14.63;8.77;;;9.60;99.90;;;;;;5071308;28;20037;-72
2022/06/15 01:00:34;;;;;;;;;;;9.50;99.90;;;;;;5076337;28;20020;-72
2022/06/15 01:03:00;;;;;;;22.38;10.05;;;9.40;99.90;;;;;;5076051;28;20008;-72
2022/06/15 01:05:39;;;;;;;19.52;10.73;;;9.40;99.90;;;;;;5075677;28;20024;-72
2022/06/15 01:08:14;;;;;;;16.08;9.80;;;9.40;99.90;;;;;;5075790;28;20024;-72
2022/06/15 01:10:56;;;;;;;15.80;9.98;;;9.40;99.90;;;;;;5075387;28;20039;-72
2022/06/15 01:13:59;;;;;;;21.67;10.57;;;9.30;99.90;;;;;;5075498;28;20052;-72
2022/06/15 01:16:43;;;;;;;26.35;11.27;;;9.30;99.90;;;;;;5075390;28;20082;-72
2022/06/15 01:19:11;;;;;;;19.75;10.45;;;9.20;99.90;;;;;;5075972;28;20511;-73
2022/06/15 01:22:10;;;;;;;18.35;10.85;;;9.20;99.90;;;;;;5075309;28;20033;-72
2022/06/15 01:24:39;;;;;;;22.02;11.10;;;9.20;99.90;;;;;;5075292;28;20024;-72
2022/06/15 01:27:19;;;;;;;23.08;11.23;;;9.20;99.90;;;;;;5075242;28;20107;-72
2022/06/15 01:30:11;;;;;;;16.48;9.65;;;9.20;99.90;;;;;;5075496;28;20032;-72
2022/06/15 01:32:56;;;;;;;18.05;11.52;;;9.20;99.90;;;;;;5075273;28;20025;-71
2022/06/15 01:35:45;;;;;;;19.60;10.05;;;9.10;99.90;;;;;;5075154;28;20115;-72
2022/06/15 01:38:21;;;;;;;15.98;8.90;;;9.00;99.90;;;;;;5075536;28;20029;-72
2022/06/15 01:41:15;;;;;;;14.02;9.85;;;9.00;99.90;;;;;;5075212;28;20040;-72
2022/06/15 01:43:47;;;;;;;17.85;9.57;;;9.00;99.90;;;;;;5072122;28;20106;-72
2022/06/15 01:46:13;;;;;;;16.08;10.02;;;9.00;99.90;;;;;;5075510;28;20385;-74
2022/06/15 01:48:40;;;;;;;16.05;10.75;;;9.00;99.90;;;;;;5075116;28;20021;-73
2022/06/15 01:51:20;;;;;;;13.00;9.05;;;8.90;99.90;;;;;;5074797;28;20108;-73
2022/06/15 01:53:59;;;;;;;16.35;8.95;;;8.90;99.90;;;;;;5074631;28;20023;-73
2022/06/15 01:56:30;;;;;;;15.88;8.90;;;8.90;99.90;;;;;;5075363;28;20021;-73
2022/06/15 01:59:26;;;;;;;16.05;9.95;;;8.80;99.90;;;;;;5074615;28;20515;-72
2022/06/15 02:02:32;;;;;;;14.77;10.80;;;8.80;99.90;;;;;;5074873;28;20032;-72
2022/06/15 02:05:06;;;;;;;19.30;9.10;;;8.70;99.90;;;;;;5074331;28;20033;-73
2022/06/15 02:08:04;;;;;;;9.80;6.88;;;8.80;99.90;;;;;;5074644;28;20480;-72
2022/06/15 02:10:34;;;;;;;13.75;7.40;;;8.70;99.90;;;;;;5065676;28;20067;-72
2022/06/15 02:13:14;;;;;;;16.48;7.22;;;8.70;99.90;;;;;;5074718;28;20051;-72
2022/06/15 02:15:43;;;;;;;13.05;8.63;;;8.70;99.90;;;;;;5074266;28;20059;-72
2022/06/15 02:18:12;;;;;;;13.88;8.50;;;8.70;99.90;;;;;;5074152;28;20429;-72
2022/06/15 02:20:44;;;;;;;18.70;8.90;;;8.70;99.90;;;;;;5074383;28;20021;-72
2022/06/15 02:23:12;;;;;;;11.02;8.40;;;8.60;99.90;;;;;;5074632;28;20107;-72
2022/06/15 02:25:43;;;;;;;9.10;7.53;;;8.50;99.90;;;;;;5074285;28;20028;-72
2022/06/15 02:28:10;;;;;;;11.05;7.93;;;8.40;99.90;;;;;;5074278;28;20483;-72
2022/06/15 02:30:36;;;;;;;10.50;6.78;;;8.30;99.90;;;;;;5074574;28;20028;-72
2022/06/15 02:33:30;;;;;;;11.93;8.55;;;8.30;99.90;;;;;;5074221;28;20048;-72
2022/06/15 02:35:57;;;;;;;11.85;7.57;;;8.20;99.90;;;;;;5066337;28;20048;-72
2022/06/15 02:38:24;;;;;;;14.50;7.15;;;8.10;99.90;;;;;;5074160;28;20024;-72
2022/06/15 02:40:49;;;;;;;12.23;7.13;;;8.10;99.90;;;;;;5074222;28;20089;-72
2022/06/15 02:43:19;;;;;;;10.43;7.10;;;8.00;99.90;;;;;;5074750;28;20115;-73
2022/06/15 02:45:47;;;;;;;11.00;7.38;;;7.90;99.90;;;;;;5074351;28;20147;-73
2022/06/15 02:48:14;;;;;;;13.57;6.35;;;7.90;99.90;;;;;;5074157;28;20025;-73
2022/06/15 02:50:47;;;;;;;11.05;6.35;;;7.90;99.90;;;;;;5074011;28;20031;-73
2022/06/15 02:53:20;;;;;;;12.15;6.55;;;7.90;99.90;;;;;;5074020;28;20020;-72
2022/06/15 02:55:47;;;;;;;11.48;7.75;;;7.90;99.90;;;;;;5073787;28;20017;-73
2022/06/15 02:58:30;;;;;;;13.65;7.55;;;7.90;99.90;;;;;;5073990;28;20017;-73
2022/06/15 03:00:57;;;;;;;12.93;6.60;;;7.90;99.90;;;;;;5074065;28;20056;-73
2022/06/15 03:03:24;;;;;;;9.48;7.65;;;7.80;99.90;;;;;;5073909;28;20496;-73
2022/06/15 03:05:50;;;;;;;11.40;7.45;;;7.80;99.90;;;;;;5073834;28;20484;-72
2022/06/15 03:08:17;;;;;;;10.82;7.13;;;7.80;99.90;;;;;;5072443;28;20025;-72
2022/06/15 03:10:43;;;;;;;14.15;7.78;;;7.80;99.90;;;;;;5073823;28;20090;-73
2022/06/15 03:13:08;;;;;;;14.45;8.30;;;7.80;99.90;;;;;;5072615;28;20476;-73
2022/06/15 03:15:34;;;;;;;15.82;8.60;;;7.80;99.90;;;;;;5073711;28;20035;-74
2022/06/15 03:18:00;;;;;;;14.55;10.73;;;7.80;99.90;;;;;;5074044;28;20051;-73
2022/06/15 03:20:25;;;;;;;22.50;12.32;;;8.00;99.90;;;;;;5073733;28;20043;-73
2022/06/15 03:22:51;;;;;;;20.58;11.80;;;8.10;99.90;;;;;;5076428;28;20036;-73
2022/06/15 03:25:17;;;;;;;26.20;9.27;;;8.20;99.90;;;;;;5073434;28;20028;-72
2022/06/15 03:27:43;;;;;;;19.27;9.38;;;8.30;99.90;;;;;;5057558;28;20033;-73
2022/06/15 03:30:10;;;;;;;16.98;9.07;;;8.30;99.90;;;;;;5057546;28;20473;-73
2022/06/15 03:32:35;;;;;;;17.38;9.13;;;8.30;99.90;;;;;;5057745;28;20052;-73
2022/06/15 03:35:02;;;;;;;16.05;8.98;;;8.30;99.90;;;;;;5057194;28;20439;-73
2022/06/15 03:37:27;;;;;;;11.25;8.07;;;8.30;99.90;;;;;;5068051;28;20020;-73
2022/06/15 03:39:54;;;;;;;14.55;7.40;;;8.20;99.90;;;;;;5077820;28;20039;-73
2022/06/15 03:42:23;;;;;;;11.40;7.60;;;8.20;99.90;;;;;;5077223;28;20532;-73
2022/06/15 03:44:50;;;;;;;17.13;7.55;;;8.20;99.90;;;;;;5077171;28;20033;-72
2022/06/15 03:47:17;;;;;;;12.00;7.97;;;8.20;99.90;;;;;;5077456;28;20111;-73
2022/06/15 03:50:01;;;;;;;15.10;8.68;;;8.10;99.90;;;;;;5077025;28;20024;-73
2022/06/15 03:52:27;;;;;;;14.02;7.82;;;8.20;99.90;;;;;;5077163;28;20081;-73
2022/06/15 03:54:53;;;;;;;13.93;8.60;;;8.20;99.90;;;;;;5077040;28;20040;-73
2022/06/15 03:57:20;;;;;;;21.60;9.15;;;8.20;99.90;;;;;;5077262;28;20024;-73
2022/06/15 03:59:47;;;;;;;22.50;10.18;;;8.30;99.90;;;;;;5076910;28;20029;-73
2022/06/15 04:02:12;;;;;;;14.73;8.38;;;8.40;99.90;;;;;;5076966;28;20484;-73
2022/06/15 04:04:38;;;;;;;13.30;9.25;;;8.40;99.90;;;;;;5076883;28;20107;-73
2022/06/15 04:07:05;;;;;;;20.13;9.73;;;8.40;99.90;;;;;;5076951;28;20389;-73
2022/06/15 04:09:31;;;;;;;11.88;8.70;;;8.40;99.90;;;;;;5077043;28;20133;-73
2022/06/15 04:12:01;;;;;;;12.00;8.40;;;8.40;99.90;;;;;;5076753;28;20476;-73
2022/06/15 04:14:31;;;;;;;16.02;9.05;;;8.40;99.90;;;;;;5076834;28;20048;-72
2022/06/15 04:16:57;;;;;;;16.90;9.02;;;8.40;99.90;;;;;;5077204;28;20103;-73
2022/06/15 04:19:29;;;;;;;14.13;9.15;;;8.40;99.90;;;;;;5076635;28;20098;-73
2022/06/15 04:21:55;;;;;;;16.33;10.95;;;8.50;99.90;;;;;;5076871;28;20356;-73
2022/06/15 04:24:22;;;;;;;21.20;10.75;;;8.60;99.90;;;;;;5076922;28;20028;-73
2022/06/15 04:26:49;;;;;;;22.50;12.02;;;8.70;99.90;;;;;;5076804;28;20059;-73
2022/06/15 04:29:17;;;;;;;32.85;14.98;;;8.80;99.90;;;;;;5076592;28;20380;-73
2022/06/15 04:31:42;;;;;;;22.45;12.43;;;9.00;99.90;;;;;;5076356;28;20033;-73
2022/06/15 04:34:09;;;;;;;18.75;12.70;;;9.20;99.90;;;;;;5074919;28;20472;-72
2022/06/15 04:36:37;;;;;;;34.05;15.10;;;9.40;99.90;;;;;;5076906;28;20038;-72
2022/06/15 04:39:03;;;;;;;29.80;13.65;;;9.60;99.90;;;;;;5076310;28;20028;-72
2022/06/15 04:41:29;;;;;;;47.65;18.73;;;9.80;99.90;;;;;;5076358;28;20032;-72
2022/06/15 04:43:54;;;;;;;28.70;15.88;;;10.00;99.90;;;;;;5076368;28;20024;-72
2022/06/15 04:46:20;;;;;;;30.08;15.98;;;10.20;99.90;;;;;;5076101;28;20408;-72
2022/06/15 04:48:46;;;;;;;33.38;15.27;;;10.40;99.90;;;;;;5075930;28;20021;-72
2022/06/15 04:51:15;;;;;;;29.13;14.75;;;10.60;99.90;;;;;;5075977;28;20016;-72
2022/06/15 04:53:41;;;;;;;41.22;16.75;;;10.70;99.90;;;;;;5076187;28;20032;-72
2022/06/15 04:56:07;;;;;;;47.03;19.95;;;10.90;99.90;;;;;;5075892;28;20021;-72
2022/06/15 04:58:33;;;;;;;37.70;18.38;;;11.20;99.90;;;;;;5076171;28;20044;-72
2022/06/15 05:00:59;;;;;;;49.67;21.73;;;11.30;99.90;;;;;;5075845;28;20036;-72
2022/06/15 05:03:25;;;;;;;41.53;18.80;;;11.50;99.90;;;;;;5076351;28;20028;-72
2022/06/15 05:05:55;;;;;;;51.28;17.58;;;11.60;99.90;;;;;;5076419;28;20029;-72
2022/06/15 05:08:21;;;;;;;41.33;16.52;;;11.70;99.90;;;;;;5076316;28;20089;-72
2022/06/15 05:10:46;;;;;;;51.25;18.52;;;11.80;99.90;;;;;;5076346;28;20033;-72
2022/06/15 05:13:12;;;;;;;37.10;16.27;;;11.90;99.90;;;;;;5075888;28;20028;-72
2022/06/15 05:15:38;;;;;;;50.03;18.73;;;12.00;99.90;;;;;;5075372;28;20087;-72
2022/06/15 05:18:06;;;;;;;45.00;17.02;;;12.10;99.90;;;;;;5075452;28;20085;-72
2022/06/15 05:20:36;;;;;;;41.17;17.10;;;12.20;99.90;;;;;;5075291;28;20067;-72
2022/06/15 05:23:02;;;;;;;35.38;15.43;;;12.40;99.90;;;;;;5075379;28;20095;-72
2022/06/15 05:25:28;;;;;;;36.85;14.95;;;12.50;99.90;;;;;;5075676;28;20460;-72
2022/06/15 05:27:54;;;;;;;27.58;13.23;;;12.70;99.90;;;;;;5075158;28;20111;-73
2022/06/15 05:30:20;;;;;;;38.50;13.07;;;12.80;99.90;;;;;;5075386;28;20169;-73
2022/06/15 05:32:46;;;;;;;31.95;12.43;;;12.90;99.90;;;;;;5075434;28;20046;-72
2022/06/15 05:35:12;;;;;;;39.15;11.45;;;12.90;99.90;;;;;;5074998;28;20535;-73
2022/06/15 05:37:39;;;;;;;36.00;9.43;;;12.90;99.90;;;;;;5075273;28;20055;-73
2022/06/15 05:40:06;;;;;;;19.52;9.85;;;12.90;99.90;;;;;;5075229;28;20028;-73
2022/06/15 05:42:31;;;;;;;23.30;8.77;;;12.90;99.90;;;;;;5074947;28;20051;-73
2022/06/15 05:44:57;;;;;;;26.17;7.78;;;12.90;99.90;;;;;;5074516;28;20064;-73
2022/06/15 05:47:23;;;;;;;29.02;8.45;;;13.00;99.90;;;;;;5074894;28;20070;-73
2022/06/15 05:49:49;;;;;;;22.92;6.25;;;13.10;99.90;;;;;;5074693;28;20491;-73
2022/06/15 05:52:15;;;;;;;21.25;6.00;;;13.20;99.90;;;;;;5074923;28;20070;-73
2022/06/15 05:54:40;;;;;;;23.77;5.35;;;13.20;99.90;;;;;;5073724;28;20021;-73
2022/06/15 05:57:20;;;;;;;16.60;5.18;;;13.40;99.90;;;;;;5073589;28;20141;-73
2022/06/15 05:59:47;;;;;;;15.65;6.10;;;13.50;99.90;;;;;;5074772;28;20037;-73
2022/06/15 06:02:13;;;;;;;15.77;4.72;;;13.60;99.90;;;;;;5074841;28;20082;-73
2022/06/15 06:04:39;;;;;;;17.15;5.50;;;13.70;99.90;;;;;;5074653;28;20457;-73
2022/06/15 06:07:05;;;;;;;11.50;4.40;;;13.90;99.90;;;;;;5074521;28;20161;-73
2022/06/15 06:09:31;;;;;;;22.52;5.97;;;13.90;99.90;;;;;;5074465;28;20115;-73
2022/06/15 06:11:57;;;;;;;19.52;6.55;;;14.10;99.90;;;;;;5074447;28;20021;-73
2022/06/15 06:14:23;;;;;;;19.30;5.50;;;14.20;99.90;;;;;;5074269;28;20507;-72
2022/06/15 06:16:49;;;;;;;13.90;4.72;;;14.40;99.90;;;;;;5074402;28;20056;-72
2022/06/15 06:19:15;;;;;;;13.82;4.68;;;14.60;99.90;;;;;;5074269;28;20028;-73
2022/06/15 06:21:43;;;;;;;18.92;5.13;;;14.80;99.90;;;;;;5074208;28;20028;-73
2022/06/15 06:24:09;;;;;;;19.17;4.15;;;15.00;99.90;;;;;;5074137;28;20434;-72
2022/06/15 06:26:35;;;;;;;17.58;4.72;;;15.20;99.90;;;;;;5074207;28;20029;-72
2022/06/15 06:29:00;;;;;;;12.65;3.58;;;15.20;99.90;;;;;;5074632;28;20043;-73
2022/06/15 06:31:27;;;;;;;18.58;4.28;;;15.10;99.90;;;;;;5074125;28;20025;-73
2022/06/15 06:33:53;;;;;;;11.25;3.50;;;15.30;99.90;;;;;;5074405;28;20036;-72
2022/06/15 06:36:25;;;;;;;16.05;4.20;;;15.30;99.90;;;;;;5074100;28;20028;-72
2022/06/15 06:38:51;;;;;;;22.45;4.05;;;15.40;99.90;;;;;;5074314;28;20108;-73
2022/06/15 06:41:21;;;;;;;17.10;3.38;;;15.70;99.90;;;;;;5074381;28;20044;-73
2022/06/15 06:43:46;;;;;;;7.72;3.65;;;15.90;99.90;;;;;;5073823;28;20035;-72
2022/06/15 06:46:12;;;;;;;10.75;3.40;;;16.10;99.90;;;;;;5074338;28;20032;-72
2022/06/15 06:48:37;;;;;;;11.85;3.50;;;16.20;99.90;;;;;;5068078;28;20043;-72
2022/06/15 06:51:03;;;;;;;16.98;3.80;;;16.30;99.90;;;;;;5073948;28;20099;-73
2022/06/15 06:53:29;;;;;;;12.85;4.70;;;16.40;99.90;;;;;;5073762;28;20025;-72
2022/06/15 06:56:06;;;;;;;13.20;4.13;;;16.50;99.90;;;;;;5073527;28;20473;-72
2022/06/15 06:58:32;;;;;;;13.05;2.55;;;16.30;99.90;;;;;;5073801;28;20495;-73
2022/06/15 07:00:58;;;;;;;9.30;3.22;;;16.10;99.90;;;;;;5073813;28;20028;-73
2022/06/15 07:03:23;;;;;;;13.02;3.13;;;15.80;99.90;;;;;;5070929;28;20037;-72
2022/06/15 07:05:49;;;;;;;15.85;3.63;;;15.60;99.90;;;;;;5053591;28;20040;-72
2022/06/15 07:08:15;;;;;;;11.35;2.85;;;15.60;99.90;;;;;;5053583;28;20037;-73
2022/06/15 07:10:42;;;;;;;10.20;3.10;;;16.00;99.90;;;;;;5053769;28;20067;-72
2022/06/15 07:13:08;;;;;;;6.88;3.20;;;16.40;99.90;;;;;;5071979;28;20542;-72
2022/06/15 07:15:34;;;;;;;9.23;3.25;;;16.80;99.90;;;;;;5074289;28;20349;-72
2022/06/15 07:18:01;;;;;;;8.80;2.92;;;17.10;99.90;;;;;;5073619;28;20028;-72
2022/06/15 07:20:28;;;;;;;11.65;3.47;;;17.00;99.90;;;;;;5073289;28;20082;-71
2022/06/15 07:22:54;;;;;;;14.27;3.53;;;16.80;99.90;;;;;;5073530;28;20090;-72
2022/06/15 07:25:20;;;;;;;14.43;3.33;;;16.60;99.90;;;;;;5073191;28;20029;-72
2022/06/15 07:27:46;;;;;;;16.08;3.45;;;17.10;99.90;;;;;;5073205;28;20059;-72
2022/06/15 07:30:16;;;;;;;11.13;2.78;;;17.50;99.90;;;;;;5072179;28;20484;-72
2022/06/15 07:32:43;;;;;;;6.50;2.33;;;17.70;99.90;;;;;;5074097;28;20028;-72
2022/06/15 07:35:14;;;;;;;8.13;2.70;;;17.90;99.90;;;;;;5073421;28;20067;-73
2022/06/15 07:37:40;;;;;;;10.38;2.40;;;17.60;99.90;;;;;;5073617;28;20091;-72
2022/06/15 07:40:06;;;;;;;12.82;3.13;;;17.30;99.90;;;;;;5073225;28;20058;-72
2022/06/15 07:42:32;;;;;;;15.68;3.28;;;16.90;99.90;;;;;;5073160;28;20052;-72
2022/06/15 07:44:57;;;;;;;13.15;2.47;;;16.60;99.90;;;;;;5073077;28;20125;-72
2022/06/15 07:50:07;;;;;;;7.63;2.22;;;16.20;99.90;;;;;;5073095;28;20113;-73
2022/06/15 07:52:40;;;;;;;13.88;3.08;;;16.10;99.90;;;;;;5073110;28;20032;-72
2022/06/15 07:55:09;;;;;;;14.98;3.45;;;16.20;99.90;;;;;;5073142;28;20056;-72
2022/06/15 07:57:36;;;;;;;11.70;2.38;;;16.20;99.90;;;;;;5073129;28;20100;-73
2022/06/15 08:00:04;;;;;;;7.30;2.05;;;16.30;99.90;;;;;;5073029;28;20074;-73
2022/06/15 08:02:30;;;;;;;9.57;2.83;;;16.50;99.90;;;;;;5073253;28;20021;-73
2022/06/15 08:04:55;;;;;;;6.10;1.85;;;17.00;99.90;;;;;;5073080;28;20039;-73
2022/06/15 08:07:21;;;;;;;10.63;2.40;;;17.80;99.90;;;;;;5073464;28;20376;-74
2022/06/15 08:09:46;;;;;;;12.63;2.45;;;18.20;99.90;;;;;;5076784;28;20112;-74
2022/06/15 08:12:18;;;;;;;10.15;2.20;;;18.10;99.90;;;;;;5076881;28;20553;-72
2022/06/15 08:14:49;;;;;;;9.50;2.38;;;17.70;99.90;;;;;;5076633;28;20103;-72
2022/06/15 08:17:21;;;;;;;8.93;2.08;;;17.50;99.90;;;;;;5076370;28;20472;-72
2022/06/15 08:19:51;;;;;;;6.30;2.40;;;17.30;99.90;;;;;;5076497;28;20028;-73
2022/06/15 08:22:17;;;;;;;9.52;2.70;;;17.00;99.90;;;;;;5076540;28;20396;-73
2022/06/15 08:24:44;;;;;;;16.13;2.90;;;16.80;99.90;;;;;;5076444;28;20115;-73
2022/06/15 08:27:11;;;;;;;16.02;3.00;;;16.60;99.90;;;;;;5076557;28;20024;-73
2022/06/15 08:29:38;;;;;;;13.40;2.42;;;16.90;99.90;;;;;;5076182;28;20016;-72
2022/06/15 08:32:04;;;;;;;11.73;2.70;;;17.10;99.90;;;;;;5076366;28;20045;-73
2022/06/15 08:34:33;;;;;;;9.23;2.03;;;17.70;99.90;;;;;;5075848;28;20177;-73
2022/06/15 08:36:59;;;;;;;11.15;2.08;;;17.90;99.90;;;;;;5076230;28;20061;-73
2022/06/15 08:39:25;;;;;;;8.00;1.77;;;18.10;99.90;;;;;;5075959;28;20067;-73
2022/06/15 08:42:16;;;;;;;5.18;1.77;;;18.50;99.90;;;;;;5076215;28;20086;-73
2022/06/15 08:45:18;;;;;;;7.30;2.03;;;18.70;99.90;;;;;;5076129;28;20032;-72
2022/06/15 08:48:42;;;;;;;9.70;2.80;;;18.80;99.90;;;;;;5075740;28;20062;-73
2022/06/15 08:51:39;;;;;;;8.05;1.90;;;19.00;99.90;;;;;;5052822;28;20072;-73
2022/06/15 08:54:10;;;;;;;8.63;2.47;;;19.40;99.90;;;;;;5076083;28;20082;-72
2022/06/15 08:56:36;;;;;;;10.95;2.67;;;19.30;99.90;;;;;;5075825;28;20097;-73
2022/06/15 08:59:24;;;;;;;23.38;2.35;;;19.90;99.90;;;;;;5075646;28;20052;-73
2022/06/15 09:02:00;;;;;;;6.57;2.08;;;20.20;99.90;;;;;;5075879;28;20035;-72
2022/06/15 09:04:55;;;;;;;7.57;2.10;;;20.10;99.90;;;;;;5075739;28;20025;-74
2022/06/15 09:07:58;;;;;;;6.90;2.30;;;19.50;99.90;;;;;;5076011;28;20365;-73
2022/06/15 09:10:29;;;;;;;7.68;2.17;;;18.80;99.90;;;;;;5075761;28;20039;-73
2022/06/15 09:13:00;;;;;;;13.73;3.10;;;18.20;99.90;;;;;;5075588;28;20025;-72
2022/06/15 09:15:54;;;;;;;6.55;2.08;;;17.90;99.90;;;;;;5075729;28;20027;-72
2022/06/15 09:18:35;;;;;;;5.60;1.73;;;17.70;99.90;;;;;;5075636;28;20095;-73
2022/06/15 09:21:16;;;;;;;6.95;2.00;;;17.70;99.90;;;;;;5074754;28;20032;-74
2022/06/15 09:23:49;;;;;;;10.65;2.20;;;17.80;99.90;;;;;;5075345;28;20104;-73
2022/06/15 09:26:18;;;;;;;9.77;1.30;;;17.90;99.90;;;;;;5075842;28;20036;-73
2022/06/15 09:29:06;;;;;;;8.48;1.95;;;18.10;99.90;;;;;;5074721;28;20039;-71
2022/06/15 09:31:53;;;;;;;5.95;1.65;;;18.20;99.90;;;;;;5075208;28;20023;-72
2022/06/15 09:34:32;;;;;;;7.80;1.90;;;18.30;99.90;;;;;;5074586;28;20115;-72
2022/06/15 09:36:58;;;;;;;11.63;2.40;;;18.70;99.90;;;;;;5074241;28;20095;-73
2022/06/15 09:39:26;;;;;;;9.07;1.63;;;19.10;99.90;;;;;;5073945;28;20036;-73
2022/06/15 09:42:16;;;;;;;3.90;1.60;;;19.00;99.90;;;;;;5074143;28;20028;-73
2022/06/15 09:45:01;;;;;;;7.90;1.73;;;18.60;99.90;;;;;;5073857;28;20020;-72
2022/06/15 09:47:53;;;;;;;7.47;1.85;;;18.40;99.90;;;;;;5072637;28;20421;-72
2022/06/15 09:50:58;;;;;;;1.88;1.10;;;18.00;99.90;;;;;;5074316;28;20102;-73
2022/06/15 09:53:42;;;;;;;8.07;1.88;;;18.40;99.90;;;;;;5073090;28;20396;-72
2022/06/15 09:56:13;;;;;;;2.47;0.85;;;19.50;99.90;;;;;;5074257;28;20036;-72
2022/06/15 09:58:43;;;;;;;7.05;1.38;;;20.30;99.90;;;;;;5074129;28;20078;-73
2022/06/15 10:01:09;;;;;;;4.65;0.90;;;20.80;99.90;;;;;;5073889;28;20094;-73
2022/06/15 10:03:41;;;;;;;6.13;1.80;;;21.10;99.90;;;;;;5073441;28;20052;-72
2022/06/15 10:06:28;;;;;;;3.22;1.20;;;20.80;99.90;;;;;;5073755;28;20036;-72
2022/06/15 10:08:55;;;;;;;3.67;1.17;;;20.30;99.90;;;;;;5073394;28;20039;-73
2022/06/15 10:11:36;;;;;;;4.00;1.67;;;20.00;99.90;;;;;;5073422;28;20029;-73
2022/06/15 10:14:28;;;;;;;4.55;1.40;;;19.50;99.90;;;;;;5072311;28;20066;-72
2022/06/15 10:16:58;;;;;;;8.00;1.63;;;18.90;99.90;;;;;;5072077;28;20078;-72
2022/06/15 10:19:26;;;;;;;2.97;1.15;;;18.70;99.90;;;;;;5073578;28;20544;-72
2022/06/15 10:21:56;;;;;;;9.00;1.80;;;18.70;99.90;;;;;;5073238;28;20047;-73
2022/06/15 10:24:31;;;;;;;5.03;1.45;;;19.00;99.90;;;;;;5069649;28;20471;-71
2022/06/15 10:27:16;;;;;;;5.15;1.27;;;19.50;99.90;;;;;;5072464;28;20067;-73
2022/06/15 10:29:41;;;;;;;6.63;1.30;;;19.90;99.90;;;;;;5072204;28;20028;-72
2022/06/15 10:32:10;;;;;;;10.00;1.55;;;20.30;99.90;;;;;;5070589;28;20441;-72
2022/06/15 10:34:45;;;;;;;5.27;1.03;;;20.80;99.90;;;;;;5035363;28;1057318;-72
2022/06/15 10:37:21;;;;;;;4.68;1.60;;;21.20;99.90;;;;;;5073734;28;20028;-73
2022/06/15 10:39:50;;;;;;;2.40;1.02;;;21.30;99.90;;;;;;5073007;28;20073;-72
2022/06/15 10:42:24;;;;;;;4.70;1.45;;;21.70;99.90;;;;;;5073185;28;20059;-74
2022/06/15 10:44:54;;;;;;;6.15;1.17;;;22.10;99.90;;;;;;5072555;28;20035;-73
2022/06/15 10:47:45;;;;;;;3.58;0.95;;;21.90;99.90;;;;;;5073217;28;20052;-74
2022/06/15 10:50:31;;;;;;;2.95;0.93;;;22.10;99.90;;;;;;5066674;28;20025;-73
2022/06/15 10:53:01;;;;;;;3.85;1.20;;;22.40;99.90;;;;;;5067524;28;20411;-73
2022/06/15 11:04:12;;;;;;;4.00;1.38;;;20.30;99.90;;;;;;5071761;28;20400;-73
2022/06/15 11:06:49;;;;;;;5.05;1.50;;;20.00;99.90;;;;;;5071607;28;20469;-73
2022/06/15 11:09:34;;;;;;;6.10;1.50;;;19.80;99.90;;;;;;5072194;28;20028;-72
2022/06/15 11:12:05;;;;;;;3.92;1.70;;;20.00;99.90;;;;;;5070205;28;20027;-72
2022/06/15 11:14:42;;;;;;;5.45;1.30;;;20.40;99.90;;;;;;5073474;28;20070;-71
2022/06/15 11:20:19;;;;;;;8.35;1.27;;;21.50;99.90;;;;;;5073602;28;20059;-72
2022/06/15 11:22:48;;;;;;;6.88;1.30;;;21.40;99.90;;;;;;5073417;28;20029;-72
2022/06/15 11:25:16;;;;;;;4.05;1.25;;;20.90;99.90;;;;;;5073567;28;20058;-72
2022/06/15 11:27:50;;;;;;;4.63;1.00;;;20.50;99.90;;;;;;5073325;28;20029;-72
2022/06/15 11:30:35;;;;;;;4.32;1.27;;;20.20;99.90;;;;;;5073016;28;20056;-72
2022/06/15 11:33:18;;;;;;;4.45;1.10;;;20.00;99.90;;;;;;5073530;28;20033;-72
2022/06/15 11:36:00;;;;;;;8.15;1.48;;;20.40;99.90;;;;;;5073131;28;20035;-72
2022/06/15 11:38:37;;;;;;;8.25;1.35;;;21.10;99.90;;;;;;5073442;28;20024;-73
2022/06/15 11:41:22;;;;;;;3.28;1.25;;;21.00;99.90;;;;;;5073183;28;20013;-72
2022/06/15 11:43:50;;;;;;;4.47;1.20;;;20.60;99.90;;;;;;5075549;28;20056;-72
2022/06/15 11:46:38;;;;;;;4.75;1.35;;;20.50;99.90;;;;;;5076923;28;20020;-72
2022/06/15 11:49:25;;;;;;;5.95;1.73;;;20.20;99.90;;;;;;5076966;28;20017;-72
2022/06/15 11:52:23;;;;;;;3.75;1.35;;;20.30;99.90;;;;;;5076839;28;20026;-72
2022/06/15 11:54:59;;;;;;;4.47;1.10;;;20.10;99.90;;;;;;5077087;28;20024;-73
2022/06/15 11:57:47;;;;;;;6.93;1.30;;;20.30;99.90;;;;;;5077087;28;20048;-72
2022/06/15 12:00:31;;;;;;;8.75;1.38;;;20.40;99.90;;;;;;5076652;28;20029;-72
2022/06/15 12:03:28;;;;;;;6.03;2.28;;;20.40;99.90;;;;;;5077076;28;20024;-72
2022/06/15 12:05:57;;;;;;;12.45;1.20;;;20.50;99.90;;;;;;5077005;28;20036;-72
2022/06/15 12:08:41;;;;;;;8.70;1.77;;;20.40;99.90;;;;;;5076806;28;20028;-72
2022/06/15 12:14:44;;;;;;;4.18;1.15;;;19.40;99.90;;;;;;5076454;28;20459;-72
2022/06/15 12:17:29;;;;;;;8.43;1.90;;;19.30;99.90;;;;;;5076620;28;20021;-72
2022/06/15 12:20:03;;;;;;;5.22;1.20;;;19.50;99.90;;;;;;5077253;28;20220;-72
2022/06/15 12:22:54;;;;;;;7.53;1.52;;;20.10;99.90;;;;;;5076702;28;20052;-71
2022/06/15 12:25:45;;;;;;;4.18;1.17;;;20.20;99.90;;;;;;5076113;28;20032;-71
2022/06/15 12:28:37;;;;;;;9.27;1.75;;;20.30;99.90;;;;;;5076546;28;20491;-72
2022/06/15 12:31:32;;;;;;;6.45;1.27;;;20.20;99.90;;;;;;5075089;28;20035;-72
2022/06/15 12:34:13;;;;;;;8.07;1.52;;;19.80;99.90;;;;;;5076515;28;20077;-71
2022/06/15 12:36:41;;;;;;;8.88;1.67;;;19.80;99.90;;;;;;5076382;28;20541;-71
2022/06/15 12:39:23;;;;;;;9.93;1.25;;;19.60;99.90;;;;;;5075917;28;20488;-71
2022/06/15 12:44:43;;;;;;;6.90;2.05;;;19.70;99.90;;;;;;5076315;28;20077;-71
2022/06/15 12:47:13;;;;;;;7.35;1.75;;;20.00;99.90;;;;;;5075894;28;20016;-71
2022/06/15 12:50:16;;;;;;;6.93;1.55;;;19.80;99.90;;;;;;5075886;28;20426;-71
2022/06/15 12:52:52;;;;;;;4.95;1.30;;;19.60;99.90;;;;;;5076146;28;20506;-71
2022/06/15 12:55:36;;;;;;;5.68;1.38;;;19.70;99.90;;;;;;5074560;28;20145;-71
2022/06/15 12:58:25;;;;;;;4.80;1.05;;;19.80;99.90;;;;;;5075668;28;20102;-71
2022/06/15 13:00:56;;;;;;;11.80;1.40;;;19.70;99.90;;;;;;5075778;28;20036;-71
2022/06/15 13:03:59;;;;;;;6.00;1.27;;;19.60;99.90;;;;;;5075587;28;20055;-71
2022/06/15 13:06:37;;;;;;;15.18;1.52;;;19.40;99.90;;;;;;5075762;28;20468;-71
2022/06/15 13:09:16;;;;;;;7.97;1.75;;;19.50;99.90;;;;;;5075348;28;20516;-71
2022/06/15 13:11:52;;;;;;;9.82;1.73;;;19.20;99.90;;;;;;5075626;28;20041;-71
2022/06/15 13:14:28;;;;;;;6.90;1.58;;;19.10;99.90;;;;;;5076074;28;20409;-71
2022/06/15 13:17:08;;;;;;;6.70;1.23;;;18.90;99.90;;;;;;5075127;28;20029;-70
2022/06/15 13:19:46;;;;;;;6.40;1.70;;;18.80;99.90;;;;;;5075438;28;20076;-71
2022/06/15 13:22:25;;;;;;;6.30;2.40;;;19.00;99.90;;;;;;5075083;28;20039;-70
2022/06/15 13:24:56;;;;;;;6.18;1.60;;;19.20;99.90;;;;;;5075230;28;20067;-71
2022/06/15 13:27:28;;;;;;;14.13;1.55;;;20.10;99.90;;;;;;5073719;28;20032;-71
2022/06/15 13:30:19;;;;;;;7.68;1.45;;;20.90;99.90;;;;;;5075196;28;20078;-71
2022/06/15 13:33:07;;;;;;;7.05;1.40;;;21.90;99.90;;;;;;5074943;28;20449;-71